createdAt,value
2018-05-26T00:00:50.588Z,19.00
2018-05-26T00:03:20.144Z,18.93
2018-05-26T00:05:49.722Z,18.94
2018-05-26T00:08:19.324Z,19.01
2018-05-26T00:13:00.780Z,18.92
2018-05-26T00:15:31.134Z,18.75
2018-05-26T00:18:01.455Z,18.67
2018-05-26T00:20:31.803Z,18.62
2018-05-26T00:23:02.282Z,18.60
2018-05-26T00:25:31.871Z,18.61
2018-05-26T00:28:01.444Z,18.63
2018-05-26T00:30:30.998Z,18.57
2018-05-26T00:33:00.568Z,18.53
2018-05-26T00:35:30.093Z,18.53
2018-05-26T00:38:00.458Z,18.52
2018-05-26T00:40:30.036Z,18.48
2018-05-26T00:42:59.610Z,18.44
2018-05-26T00:45:29.193Z,18.44
2018-05-26T00:47:58.776Z,18.39
2018-05-26T00:50:28.342Z,18.36
2018-05-26T00:52:57.920Z,18.36
2018-05-26T00:55:27.493Z,18.31
2018-05-26T00:57:57.048Z,18.26
2018-05-26T01:00:26.599Z,18.27
2018-05-26T01:02:56.170Z,18.33
2018-05-26T01:05:25.738Z,18.34
2018-05-26T01:07:56.087Z,18.29
2018-05-26T01:10:27.198Z,18.32
2018-05-26T01:12:57.563Z,18.21
2018-05-26T01:15:27.885Z,18.24
2018-05-26T01:17:57.437Z,18.25
2018-05-26T01:20:27.177Z,18.18
2018-05-26T01:22:57.497Z,18.10
2018-05-26T01:25:27.862Z,18.02
2018-05-26T01:27:59.734Z,18.10
2018-05-26T01:30:32.249Z,18.05
2018-05-26T01:33:01.778Z,17.98
2018-05-26T01:35:34.294Z,17.89
2018-05-26T01:38:03.866Z,17.85
2018-05-26T01:40:33.479Z,17.99
2018-05-26T01:43:03.037Z,18.13
2018-05-26T01:45:32.602Z,18.13
2018-05-26T01:48:02.934Z,18.16
2018-05-26T01:50:32.485Z,18.21
2018-05-26T01:53:02.068Z,18.08
2018-05-26T01:55:32.372Z,17.96
2018-05-26T01:58:02.708Z,17.83
2018-05-26T02:00:32.266Z,17.73
2018-05-26T02:03:03.414Z,17.73
2018-05-26T02:05:32.973Z,17.73
2018-05-26T02:08:02.564Z,17.74
2018-05-26T02:10:32.137Z,17.84
2018-05-26T02:13:01.711Z,17.83
2018-05-26T02:15:31.281Z,17.83
2018-05-26T02:18:00.841Z,17.71
2018-05-26T02:20:30.422Z,17.63
2018-05-26T02:22:59.974Z,17.74
2018-05-26T02:25:29.545Z,17.74
2018-05-26T02:27:59.866Z,17.75
2018-05-26T02:30:29.444Z,17.67
2018-05-26T02:32:59.792Z,17.55
2018-05-26T02:35:29.386Z,17.50
2018-05-26T02:37:59.823Z,17.44
2018-05-26T02:40:29.400Z,17.45
2018-05-26T02:42:59.741Z,17.37
2018-05-26T02:45:29.305Z,17.34
2018-05-26T02:47:59.653Z,17.23
2018-05-26T02:50:29.998Z,17.09
2018-05-26T02:52:59.553Z,16.94
2018-05-26T02:55:31.485Z,16.85
2018-05-26T02:58:02.601Z,16.77
2018-05-26T03:00:32.174Z,16.81
2018-05-26T03:03:01.722Z,16.78
2018-05-26T03:05:37.422Z,16.71
2018-05-26T03:08:13.816Z,16.65
2018-05-26T03:10:52.573Z,16.63
2018-05-26T03:13:29.845Z,16.63
2018-05-26T03:17:25.242Z,16.55
2018-05-26T03:19:56.363Z,16.57
2018-05-26T03:22:27.454Z,16.76
2018-05-26T03:24:59.341Z,17.08
2018-05-26T03:27:31.852Z,17.30
2018-05-26T03:30:01.413Z,17.32
2018-05-26T03:32:32.513Z,17.35
2018-05-26T03:35:02.097Z,17.48
2018-05-26T03:37:32.454Z,17.46
2018-05-26T03:40:02.049Z,17.39
2018-05-26T03:42:31.616Z,17.52
2018-05-26T03:45:01.207Z,17.59
2018-05-26T03:47:30.793Z,17.69
2018-05-26T03:50:00.377Z,17.72
2018-05-26T03:52:31.489Z,17.61
2018-05-26T03:55:59.081Z,17.49
2018-05-26T03:58:55.335Z,17.34
2018-05-26T04:01:24.914Z,17.18
2018-05-26T04:03:54.469Z,17.06
2018-05-26T04:06:24.039Z,17.01
2018-05-26T04:08:54.409Z,17.07
2018-05-26T04:11:24.059Z,17.16
2018-05-26T04:13:53.619Z,17.10
2018-05-26T04:16:23.196Z,17.00
2018-05-26T04:18:52.775Z,17.01
2018-05-26T04:21:34.917Z,17.10
2018-05-26T04:24:04.481Z,17.03
2018-05-26T04:26:34.196Z,16.90
2018-05-26T04:29:04.559Z,16.88
2018-05-26T04:31:34.105Z,17.00
2018-05-26T04:34:03.686Z,17.04
2018-05-26T04:36:33.249Z,17.08
2018-05-26T04:39:04.413Z,17.01
2018-05-26T04:41:33.336Z,16.96
2018-05-26T04:44:02.133Z,17.01
2018-05-26T04:46:31.733Z,17.07
2018-05-26T04:49:01.293Z,17.15
2018-05-26T04:51:30.917Z,17.15
2018-05-26T04:54:00.480Z,17.19
2018-05-26T04:56:30.048Z,17.35
2018-05-26T04:58:59.614Z,17.50
2018-05-26T05:01:29.191Z,17.60
2018-05-26T05:03:58.731Z,17.72
2018-05-26T05:06:28.297Z,17.77
2018-05-26T05:08:57.889Z,17.86
2018-05-26T05:11:27.465Z,17.97
2018-05-26T05:13:57.053Z,18.08
2018-05-26T05:16:26.629Z,18.07
2018-05-26T05:18:56.190Z,18.13
2018-05-26T05:21:25.777Z,18.26
2018-05-26T05:23:55.353Z,18.35
2018-05-26T05:26:24.930Z,18.37
2018-05-26T05:28:54.499Z,18.43
2018-05-26T05:31:24.062Z,18.49
2018-05-26T05:34:06.965Z,18.65
2018-05-26T05:36:36.576Z,18.76
2018-05-26T05:39:06.265Z,18.95
2018-05-26T05:41:35.866Z,19.05
2018-05-26T05:44:05.452Z,19.18
2018-05-26T05:46:35.020Z,19.31
2018-05-26T05:49:04.595Z,19.49
2018-05-26T05:51:37.107Z,19.62
2018-05-26T05:54:06.677Z,19.80
2018-05-26T05:56:37.002Z,19.95
2018-05-26T05:59:06.567Z,20.06
2018-05-26T06:01:36.152Z,20.23
2018-05-26T06:04:05.701Z,20.38
2018-05-26T06:06:36.061Z,20.52
2018-05-26T06:09:05.744Z,20.63
2018-05-26T06:11:35.320Z,20.75
2018-05-26T06:14:05.013Z,20.93
2018-05-26T06:16:34.590Z,21.05
2018-05-26T06:19:04.187Z,21.16
2018-05-26T06:21:33.761Z,21.29
2018-05-26T06:24:03.313Z,21.36
2018-05-26T06:26:32.911Z,21.43
2018-05-26T06:29:02.469Z,21.52
2018-05-26T06:31:32.044Z,21.62
2018-05-26T06:34:01.658Z,21.74
2018-05-26T06:36:31.250Z,21.91
2018-05-26T06:39:00.824Z,22.04
2018-05-26T06:41:30.398Z,22.13
2018-05-26T06:43:59.990Z,22.20
2018-05-26T06:46:30.376Z,22.28
2018-05-26T06:49:01.475Z,22.39
2018-05-26T06:51:31.042Z,22.43
2018-05-26T06:54:00.594Z,22.46
2018-05-26T06:56:30.192Z,22.53
2018-05-26T06:58:59.745Z,22.61
2018-05-26T07:01:29.326Z,22.71
2018-05-26T07:04:11.500Z,22.86
2018-05-26T07:06:41.085Z,22.91
2018-05-26T07:09:12.273Z,22.98
2018-05-26T07:11:41.857Z,23.05
2018-05-26T07:14:12.181Z,23.13
2018-05-26T07:16:41.749Z,23.23
2018-05-26T07:19:12.061Z,23.33
2018-05-26T07:21:41.649Z,23.50
2018-05-26T07:24:11.203Z,23.60
2018-05-26T07:26:40.789Z,23.65
2018-05-26T07:29:12.686Z,23.81
2018-05-26T07:31:42.253Z,23.92
2018-05-26T07:34:12.601Z,24.11
2018-05-26T07:36:45.213Z,24.16
2018-05-26T07:39:14.810Z,24.30
2018-05-26T07:41:45.180Z,24.64
2018-05-26T07:44:15.548Z,25.26
2018-05-26T07:46:45.150Z,26.27
2018-05-26T07:49:15.259Z,27.30
2018-05-26T07:51:45.245Z,28.17
2018-05-26T07:54:27.431Z,29.14
2018-05-26T07:56:56.985Z,29.40
2018-05-26T07:59:29.484Z,29.55
2018-05-26T08:02:01.994Z,29.78
2018-05-26T08:04:32.364Z,29.64
2018-05-26T08:07:02.726Z,30.06
2018-05-26T08:09:32.335Z,29.52
2018-05-26T08:12:02.709Z,29.52
2018-05-26T08:14:32.271Z,29.72
2018-05-26T08:17:02.643Z,29.35
2018-05-26T08:19:32.187Z,29.46
2018-05-26T08:22:02.536Z,29.09
2018-05-26T08:24:32.092Z,29.60
2018-05-26T08:27:02.313Z,29.35
2018-05-26T08:29:32.653Z,29.51
2018-05-26T08:32:02.225Z,30.43
2018-05-26T08:34:33.559Z,30.91
2018-05-26T08:37:03.572Z,31.34
2018-05-26T08:39:33.974Z,31.03
2018-05-26T08:42:03.678Z,31.21
2018-05-26T08:44:33.320Z,30.67
2018-05-26T08:47:02.911Z,30.70
2018-05-26T08:49:32.478Z,31.11
2018-05-26T08:52:03.637Z,31.32
2018-05-26T08:54:33.207Z,31.31
2018-05-26T08:57:03.586Z,31.46
2018-05-26T08:59:33.214Z,31.33
2018-05-26T09:02:02.854Z,31.43
2018-05-26T09:04:33.210Z,31.34
2018-05-26T09:07:05.962Z,31.26
2018-05-26T09:09:39.637Z,31.15
2018-05-26T09:12:09.237Z,31.22
2018-05-26T09:14:38.837Z,31.28
2018-05-26T09:17:08.439Z,31.22
2018-05-26T09:19:38.784Z,31.03
2018-05-26T09:22:08.400Z,31.07
2018-05-26T09:24:37.998Z,31.59
2018-05-26T09:27:07.594Z,32.02
2018-05-26T09:29:37.162Z,31.72
2018-05-26T09:32:06.749Z,31.66
2018-05-26T09:34:49.914Z,32.15
2018-05-26T09:37:19.502Z,32.14
2018-05-26T09:39:49.098Z,31.88
2018-05-26T09:42:18.740Z,31.49
2018-05-26T09:44:48.338Z,31.70
2018-05-26T09:47:19.461Z,32.01
2018-05-26T09:49:49.814Z,32.20
2018-05-26T09:52:19.378Z,32.36
2018-05-26T09:54:48.946Z,32.36
2018-05-26T09:57:18.541Z,32.65
2018-05-26T09:59:48.093Z,32.51
2018-05-26T10:02:17.652Z,32.62
2018-05-26T10:04:47.220Z,32.41
2018-05-26T10:07:16.818Z,32.40
2018-05-26T10:09:46.403Z,32.00
2018-05-26T10:12:16.000Z,31.75
2018-05-26T10:14:45.586Z,31.60
2018-05-26T10:17:15.189Z,31.36
2018-05-26T10:19:44.784Z,32.11
2018-05-26T10:22:14.381Z,32.20
2018-05-26T10:24:43.937Z,32.39
2018-05-26T10:27:13.539Z,32.38
2018-05-26T10:29:43.858Z,32.60
2018-05-26T10:32:14.270Z,32.94
2018-05-26T10:34:43.824Z,33.14
2018-05-26T10:37:13.434Z,33.54
2018-05-26T10:39:43.965Z,33.13
2018-05-26T10:42:13.558Z,33.36
2018-05-26T10:44:43.137Z,33.34
2018-05-26T10:47:12.693Z,33.16
2018-05-26T10:49:44.619Z,33.12
2018-05-26T10:52:18.079Z,33.04
2018-05-26T10:54:49.084Z,32.85
2018-05-26T10:57:21.857Z,33.23
2018-05-26T10:59:53.814Z,32.94
2018-05-26T11:02:23.381Z,33.20
2018-05-26T11:04:52.977Z,33.16
2018-05-26T11:07:22.562Z,33.62
2018-05-26T11:09:52.217Z,33.59
2018-05-26T11:12:22.668Z,33.11
2018-05-26T11:14:52.275Z,33.23
2018-05-26T11:17:21.929Z,33.17
2018-05-26T11:19:51.494Z,33.51
2018-05-26T11:22:23.998Z,34.04
2018-05-26T11:24:53.617Z,34.32
2018-05-26T11:27:23.176Z,34.63
2018-05-26T11:29:54.275Z,34.52
2018-05-26T11:32:24.628Z,34.01
2018-05-26T11:34:54.179Z,34.28
2018-05-26T11:37:24.588Z,34.32
2018-05-26T11:39:54.178Z,33.77
2018-05-26T11:42:24.556Z,33.84
2018-05-26T11:44:56.499Z,34.16
2018-05-26T11:47:37.906Z,34.49
2018-05-26T11:50:07.513Z,34.79
2018-05-26T11:52:38.641Z,34.96
2018-05-26T11:55:08.238Z,34.98
2018-05-26T11:57:37.825Z,34.60
2018-05-26T12:00:08.175Z,34.24
2018-05-26T12:02:39.414Z,33.95
2018-05-26T12:05:08.997Z,34.78
2018-05-26T12:07:38.602Z,34.94
2018-05-26T12:10:08.963Z,35.25
2018-05-26T12:12:41.476Z,35.19
2018-05-26T12:15:11.052Z,34.91
2018-05-26T12:17:41.409Z,34.76
2018-05-26T12:20:10.978Z,35.51
2018-05-26T12:22:40.555Z,36.02
2018-05-26T12:25:11.666Z,36.11
2018-05-26T12:27:41.743Z,35.86
2018-05-26T12:30:11.343Z,35.60
2018-05-26T12:32:40.909Z,35.16
2018-05-26T12:35:11.265Z,35.34
2018-05-26T12:37:40.885Z,35.35
2018-05-26T12:40:10.571Z,35.27
2018-05-26T12:42:40.857Z,34.79
2018-05-26T12:45:10.420Z,34.48
2018-05-26T12:47:42.986Z,34.99
2018-05-26T12:50:12.578Z,35.47
2018-05-26T12:52:42.191Z,35.99
2018-05-26T12:55:11.766Z,36.10
2018-05-26T12:57:42.164Z,36.21
2018-05-26T13:00:11.729Z,36.39
2018-05-26T13:02:42.082Z,36.07
2018-05-26T13:05:11.683Z,35.53
2018-05-26T13:07:41.328Z,35.66
2018-05-26T13:10:12.459Z,34.16
2018-05-26T13:12:42.973Z,33.72
2018-05-26T13:15:13.326Z,34.11
2018-05-26T13:17:56.250Z,34.41
2018-05-26T13:20:25.848Z,34.19
2018-05-26T13:22:55.381Z,33.93
2018-05-26T13:25:26.503Z,33.74
2018-05-26T13:27:56.208Z,33.52
2018-05-26T13:30:27.340Z,33.71
2018-05-26T13:32:56.925Z,33.92
2018-05-26T13:35:28.060Z,34.32
2018-05-26T13:38:00.148Z,34.95
2018-05-26T13:40:29.733Z,35.32
2018-05-26T13:42:59.421Z,35.47
2018-05-26T13:45:29.186Z,35.43
2018-05-26T13:47:59.733Z,35.04
2018-05-26T13:50:29.454Z,35.21
2018-05-26T13:52:58.977Z,34.78
2018-05-26T13:55:30.537Z,34.46
2018-05-26T13:58:00.041Z,34.34
2018-05-26T14:00:29.597Z,33.86
2018-05-26T14:02:59.163Z,33.69
2018-05-26T14:05:44.038Z,33.97
2018-05-26T14:08:15.160Z,34.21
2018-05-26T14:10:44.761Z,34.19
2018-05-26T14:13:14.341Z,33.79
2018-05-26T14:15:45.466Z,33.54
2018-05-26T14:18:15.050Z,33.42
2018-05-26T14:20:45.416Z,33.14
2018-05-26T14:23:15.744Z,33.12
2018-05-26T14:25:46.104Z,32.99
2018-05-26T14:28:15.671Z,32.94
2018-05-26T14:30:45.241Z,32.77
2018-05-26T14:33:15.623Z,32.72
2018-05-26T14:35:45.211Z,32.58
2018-05-26T14:38:14.827Z,32.86
2018-05-26T14:40:44.423Z,33.29
2018-05-26T14:43:14.753Z,33.76
2018-05-26T14:45:44.342Z,34.35
2018-05-26T14:48:14.733Z,34.77
2018-05-26T14:50:44.325Z,34.84
2018-05-26T14:53:13.926Z,34.80
2018-05-26T14:55:43.516Z,35.50
2018-05-26T14:58:13.139Z,35.83
2018-05-26T15:00:42.756Z,35.64
2018-05-26T15:03:13.120Z,35.97
2018-05-26T15:05:42.702Z,36.15
2018-05-26T15:08:13.038Z,36.56
2018-05-26T15:10:42.610Z,36.62
2018-05-26T15:13:12.252Z,36.27
2018-05-26T15:15:44.739Z,36.50
2018-05-26T15:18:17.275Z,36.74
2018-05-26T15:20:46.885Z,37.04
2018-05-26T15:23:17.234Z,37.28
2018-05-26T15:25:47.647Z,37.20
2018-05-26T15:28:18.022Z,37.31
2018-05-26T15:30:47.626Z,37.25
2018-05-26T15:33:17.221Z,37.29
2018-05-26T15:35:46.833Z,37.29
2018-05-26T15:38:16.443Z,37.48
2018-05-26T15:40:46.061Z,37.58
2018-05-26T15:43:16.497Z,37.62
2018-05-26T15:45:46.826Z,37.57
2018-05-26T15:48:17.965Z,37.69
2018-05-26T15:50:47.526Z,37.70
2018-05-26T15:53:17.133Z,37.28
2018-05-26T15:55:47.523Z,37.54
2018-05-26T15:58:17.927Z,37.70
2018-05-26T16:00:48.812Z,37.27
2018-05-26T16:03:18.415Z,37.19
2018-05-26T16:05:48.008Z,37.27
2018-05-26T16:08:22.921Z,37.19
2018-05-26T16:10:55.453Z,37.09
2018-05-26T16:13:25.817Z,37.00
2018-05-26T16:15:55.469Z,36.80
2018-05-26T16:18:25.081Z,36.53
2018-05-26T16:20:54.726Z,35.93
2018-05-26T16:23:25.074Z,35.15
2018-05-26T16:25:55.473Z,34.79
2018-05-26T16:28:25.810Z,34.46
2018-05-26T16:30:55.554Z,34.20
2018-05-26T16:33:25.119Z,34.15
2018-05-26T16:35:56.300Z,34.03
2018-05-26T16:38:25.910Z,33.80
2018-05-26T16:41:08.118Z,33.66
2018-05-26T16:43:37.715Z,33.48
2018-05-26T16:46:07.331Z,33.35
2018-05-26T16:48:36.936Z,33.11
2018-05-26T16:51:07.310Z,32.81
2018-05-26T16:53:37.981Z,32.54
2018-05-26T16:56:09.128Z,32.23
2018-05-26T16:58:39.514Z,32.00
2018-05-26T17:01:09.162Z,31.64
2018-05-26T17:03:50.605Z,31.23
2018-05-26T17:06:21.784Z,30.83
2018-05-26T17:08:52.149Z,30.53
2018-05-26T17:11:21.740Z,30.27
2018-05-26T17:13:52.899Z,30.01
2018-05-26T17:16:25.532Z,29.90
2018-05-26T17:18:55.923Z,29.89
2018-05-26T17:21:27.064Z,29.90
2018-05-26T17:23:58.012Z,29.94
2018-05-26T17:26:28.416Z,29.90
2018-05-26T17:29:00.633Z,29.77
2018-05-26T17:31:30.290Z,29.67
2018-05-26T17:34:01.417Z,29.62
2018-05-26T17:36:31.057Z,29.52
2018-05-26T17:39:00.608Z,29.47
2018-05-26T17:41:30.256Z,29.48
2018-05-26T17:43:59.892Z,29.37
2018-05-26T17:46:29.493Z,29.24
2018-05-26T17:48:59.889Z,29.03
2018-05-26T17:51:29.488Z,28.88
2018-05-26T17:53:59.092Z,28.70
2018-05-26T17:56:29.517Z,28.58
2018-05-26T17:59:00.619Z,28.49
2018-05-26T18:01:30.201Z,28.44
2018-05-26T18:03:59.802Z,28.36
2018-05-26T18:06:30.178Z,28.29
2018-05-26T18:09:00.548Z,28.25
2018-05-26T18:11:30.135Z,28.27
2018-05-26T18:14:00.474Z,28.15
2018-05-26T18:16:31.588Z,28.05
2018-05-26T18:19:01.170Z,27.82
2018-05-26T18:21:30.723Z,27.60
2018-05-26T18:24:01.058Z,27.43
2018-05-26T18:26:31.385Z,27.18
2018-05-26T18:29:02.017Z,27.04
2018-05-26T18:31:32.381Z,26.79
2018-05-26T18:34:01.946Z,26.71
2018-05-26T18:36:32.295Z,26.57
2018-05-26T18:39:01.953Z,26.44
2018-05-26T18:41:33.826Z,26.38
2018-05-26T18:44:03.992Z,26.25
2018-05-26T18:46:34.319Z,26.14
2018-05-26T18:49:04.673Z,26.07
2018-05-26T18:51:34.240Z,26.00
2018-05-26T18:54:04.566Z,25.82
2018-05-26T18:56:34.941Z,25.71
2018-05-26T18:59:04.824Z,25.62
2018-05-26T19:01:34.471Z,25.57
2018-05-26T19:04:04.343Z,25.50
2018-05-26T19:06:34.073Z,25.43
2018-05-26T19:09:04.916Z,25.39
2018-05-26T19:11:34.545Z,25.36
2018-05-26T19:14:06.553Z,25.39
2018-05-26T19:16:36.965Z,25.43
2018-05-26T19:19:09.489Z,25.33
2018-05-26T19:21:39.126Z,25.26
2018-05-26T19:24:08.701Z,25.18
2018-05-26T19:26:38.343Z,25.24
2018-05-26T19:29:08.682Z,25.19
2018-05-26T19:31:38.293Z,25.09
2018-05-26T19:34:07.838Z,25.02
2018-05-26T19:36:38.199Z,24.95
2018-05-26T19:39:08.606Z,24.84
2018-05-26T19:41:38.224Z,24.75
2018-05-26T19:44:07.870Z,24.58
2018-05-26T19:46:38.207Z,24.41
2018-05-26T19:49:10.742Z,24.25
2018-05-26T19:51:40.318Z,24.10
2018-05-26T19:54:09.931Z,23.95
2018-05-26T19:56:39.521Z,23.86
2018-05-26T19:59:11.474Z,23.75
2018-05-26T20:01:41.129Z,23.59
2018-05-26T20:04:11.573Z,23.53
2018-05-26T20:06:41.166Z,23.45
2018-05-26T20:09:11.565Z,23.29
2018-05-26T20:11:41.196Z,23.19
2018-05-26T20:14:10.814Z,23.10
2018-05-26T20:16:40.421Z,23.01
2018-05-26T20:19:10.806Z,22.90
2018-05-26T20:21:40.333Z,22.76
2018-05-26T20:24:09.944Z,22.63
2018-05-26T20:26:39.569Z,22.51
2018-05-26T20:29:09.200Z,22.39
2018-05-26T20:31:39.595Z,22.27
2018-05-26T20:34:09.970Z,22.17
2018-05-26T20:36:39.566Z,22.02
2018-05-26T20:39:09.189Z,21.91
2018-05-26T20:41:41.720Z,21.80
2018-05-26T20:44:12.088Z,21.70
2018-05-26T20:46:44.600Z,21.64
2018-05-26T20:49:17.101Z,21.64
2018-05-26T20:51:49.660Z,21.55
2018-05-26T20:54:19.222Z,21.43
2018-05-26T20:56:51.748Z,21.33
2018-05-26T20:59:21.334Z,21.34
2018-05-26T21:01:53.909Z,21.43
2018-05-26T21:04:23.526Z,21.35
2018-05-26T21:06:53.110Z,21.24
2018-05-26T21:09:22.735Z,21.11
2018-05-26T21:11:52.345Z,20.98
2018-05-26T21:14:22.045Z,20.95
2018-05-26T21:16:52.382Z,20.90
2018-05-26T21:19:21.945Z,20.78
2018-05-26T21:21:52.174Z,20.71
2018-05-26T21:24:21.913Z,20.63
2018-05-26T21:26:54.866Z,20.55
2018-05-26T21:29:37.357Z,20.60
2018-05-26T21:32:06.956Z,20.60
2018-05-26T21:34:36.521Z,20.50
2018-05-26T21:37:06.101Z,20.41
2018-05-26T21:39:35.697Z,20.38
2018-05-26T21:42:05.300Z,20.30
2018-05-26T21:44:35.646Z,20.22
2018-05-26T21:47:05.246Z,20.19
2018-05-26T21:49:37.117Z,20.11
2018-05-26T21:52:06.730Z,19.96
2018-05-26T21:54:39.263Z,19.85
2018-05-26T21:57:10.386Z,19.72
2018-05-26T21:59:39.970Z,19.62
2018-05-26T22:02:09.553Z,19.50
2018-05-26T22:04:39.156Z,19.45
2018-05-26T22:07:11.054Z,19.37
2018-05-26T22:09:40.622Z,19.33
2018-05-26T22:12:11.777Z,19.28
2018-05-26T22:14:42.142Z,19.34
2018-05-26T22:17:11.702Z,19.40
2018-05-26T22:19:42.074Z,19.31
2018-05-26T22:22:11.621Z,19.20
2018-05-26T22:24:42.001Z,19.24
2018-05-26T22:27:11.574Z,19.17
2018-05-26T22:29:41.169Z,19.19
2018-05-26T22:32:11.489Z,19.29
2018-05-26T22:34:41.065Z,19.28
2018-05-26T22:37:10.646Z,19.14
2018-05-26T22:39:40.233Z,19.10
2018-05-26T22:42:09.781Z,19.02
2018-05-26T22:44:40.176Z,18.86
2018-05-26T22:47:10.500Z,18.83
2018-05-26T22:49:40.077Z,18.72
2018-05-26T22:52:10.417Z,18.63
2018-05-26T22:54:40.747Z,18.68
2018-05-26T22:57:11.845Z,18.58
2018-05-26T22:59:41.425Z,18.52
2018-05-26T23:02:11.750Z,18.49
2018-05-26T23:04:41.329Z,18.47
2018-05-26T23:07:10.946Z,18.50
2018-05-26T23:09:42.057Z,18.55
2018-05-26T23:12:12.424Z,18.64
2018-05-26T23:14:42.001Z,18.72
2018-05-26T23:17:11.605Z,18.80
2018-05-26T23:19:43.490Z,19.02
2018-05-26T23:22:13.846Z,19.04
2018-05-26T23:24:43.410Z,19.22
2018-05-26T23:27:12.973Z,19.42
2018-05-26T23:29:42.546Z,19.44
2018-05-26T23:32:12.107Z,19.39
2018-05-26T23:34:42.447Z,19.31
2018-05-26T23:37:12.042Z,19.24
2018-05-26T23:39:42.386Z,19.16
2018-05-26T23:42:11.971Z,19.18
2018-05-26T23:44:41.566Z,19.27
2018-05-26T23:47:11.876Z,19.25
2018-05-26T23:49:42.255Z,19.16
2018-05-26T23:52:11.831Z,19.15
2018-05-26T23:54:41.413Z,19.06
2018-05-26T23:57:11.733Z,19.07
2018-05-26T23:59:42.102Z,19.27
